createdAt,value
2022-09-14T00:04:16.088Z,2.40
2022-09-14T00:09:18.725Z,2.50
2022-09-14T00:14:17.177Z,2.50
2022-09-14T00:19:19.030Z,2.17
2022-09-14T00:24:18.739Z,2.67
2022-09-14T00:29:17.173Z,2.20
2022-09-14T00:34:17.240Z,2.30
2022-09-14T00:39:16.330Z,2.40
2022-09-14T00:44:52.617Z,2.90
2022-09-14T00:49:52.177Z,2.60
2022-09-14T00:54:52.912Z,3.00
2022-09-14T00:59:52.680Z,2.17
2022-09-14T01:04:52.842Z,2.43
2022-09-14T01:10:01.212Z,2.20
2022-09-14T01:15:06.052Z,2.20
2022-09-14T01:20:15.489Z,2.17
2022-09-14T01:25:28.922Z,2.50
2022-09-14T01:30:32.963Z,3.07
2022-09-14T01:35:37.744Z,2.77
2022-09-14T01:40:38.677Z,2.77
2022-09-14T01:45:42.170Z,2.10
2022-09-14T01:50:43.744Z,2.50
2022-09-14T01:55:47.160Z,2.80
2022-09-14T02:00:48.300Z,2.87
2022-09-14T02:05:53.492Z,2.27
2022-09-14T02:10:51.748Z,2.77
2022-09-14T02:15:51.437Z,2.30
2022-09-14T02:20:54.513Z,2.20
2022-09-14T02:25:52.997Z,3.00
2022-09-14T02:31:03.016Z,2.83
2022-09-14T02:36:05.773Z,2.70
2022-09-14T02:41:13.682Z,2.73
2022-09-14T02:46:18.412Z,2.50
2022-09-14T02:51:25.376Z,2.30
2022-09-14T02:56:23.837Z,2.70
2022-09-14T03:01:24.833Z,2.70
2022-09-14T03:06:23.312Z,2.47
2022-09-14T03:11:21.563Z,2.90
2022-09-14T03:16:20.980Z,2.73
2022-09-14T03:21:20.645Z,2.67
2022-09-14T03:26:21.651Z,2.97
2022-09-14T03:31:20.426Z,2.57
2022-09-14T03:36:21.019Z,3.67
2022-09-14T03:41:19.837Z,2.47
2022-09-14T03:46:20.644Z,2.80
2022-09-14T03:51:18.939Z,3.33
2022-09-14T03:56:20.541Z,2.87
2022-09-14T04:01:20.644Z,3.00
2022-09-14T04:06:19.900Z,2.63
2022-09-14T04:11:21.299Z,3.50
2022-09-14T04:16:20.990Z,3.10
2022-09-14T04:21:20.594Z,3.47
2022-09-14T04:26:21.685Z,2.93
2022-09-14T04:31:19.941Z,3.10
2022-09-14T04:36:19.354Z,3.03
2022-09-14T04:41:20.447Z,3.00
2022-09-14T04:46:20.640Z,2.80
2022-09-14T04:51:20.351Z,3.53
2022-09-14T04:56:22.247Z,3.07
2022-09-14T05:01:23.020Z,3.70
2022-09-14T05:06:22.626Z,3.10
2022-09-14T05:11:23.712Z,3.40
2022-09-14T05:16:23.535Z,3.40
2022-09-14T05:21:22.908Z,3.20
2022-09-14T05:26:22.700Z,3.40
2022-09-14T05:31:21.435Z,3.17
2022-09-14T05:36:20.285Z,2.60
2022-09-14T05:41:18.423Z,2.37
2022-09-14T05:46:20.788Z,2.40
2022-09-14T05:51:20.561Z,3.77
2022-09-14T05:56:19.813Z,2.70
2022-09-14T06:01:21.774Z,2.83
2022-09-14T06:06:21.220Z,2.93
2022-09-14T06:11:20.797Z,2.77
2022-09-14T06:16:21.540Z,2.50
2022-09-14T06:21:22.149Z,2.47
2022-09-14T06:26:20.780Z,2.07
2022-09-14T06:31:22.538Z,2.67
2022-09-14T06:36:21.883Z,2.30
2022-09-14T06:41:21.712Z,2.63
2022-09-14T06:46:23.534Z,2.33
2022-09-14T06:51:23.328Z,2.83
2022-09-14T06:56:21.900Z,2.77
2022-09-14T07:01:22.362Z,2.57
2022-09-14T07:06:22.661Z,2.10
2022-09-14T07:11:22.553Z,2.40
2022-09-14T07:16:22.555Z,2.27
2022-09-14T07:21:21.271Z,2.33
2022-09-14T07:26:22.009Z,2.43
2022-09-14T07:31:23.749Z,2.10
2022-09-14T07:36:22.625Z,2.00
2022-09-14T07:41:21.068Z,2.30
2022-09-14T07:46:21.347Z,2.23
2022-09-14T07:51:19.368Z,2.10
2022-09-14T07:56:17.722Z,2.00
2022-09-14T08:01:18.420Z,2.00
2022-09-14T08:06:20.127Z,2.17
2022-09-14T08:11:20.480Z,1.50
2022-09-14T08:16:19.381Z,1.80
2022-09-14T08:21:19.001Z,1.93
2022-09-14T08:26:18.677Z,2.53
2022-09-14T08:31:18.597Z,2.03
2022-09-14T08:36:20.201Z,1.67
2022-09-14T08:41:27.282Z,2.83
2022-09-14T08:46:31.137Z,1.57
2022-09-14T08:51:31.149Z,2.07
2022-09-14T08:56:34.215Z,2.30
2022-09-14T09:01:44.741Z,1.90
2022-09-14T09:06:50.842Z,1.70
2022-09-14T09:11:52.266Z,2.23
2022-09-14T09:16:54.928Z,1.97
2022-09-14T09:21:54.503Z,2.20
2022-09-14T09:26:52.733Z,2.40
2022-09-14T09:31:53.318Z,1.50
2022-09-14T09:37:15.848Z,2.00
2022-09-14T09:42:16.951Z,1.63
2022-09-14T09:47:14.885Z,1.63
2022-09-14T09:52:16.069Z,2.10
2022-09-14T09:57:23.035Z,1.90
2022-09-14T10:02:27.907Z,2.13
2022-09-14T10:07:28.259Z,2.37
2022-09-14T10:12:27.568Z,1.83
2022-09-14T10:17:25.866Z,1.60
2022-09-14T10:22:29.591Z,1.90
2022-09-14T10:27:40.800Z,2.30
2022-09-14T10:32:41.855Z,1.60
2022-09-14T10:37:51.085Z,2.10
2022-09-14T10:42:58.909Z,2.17
2022-09-14T10:48:32.246Z,1.47
2022-09-14T10:53:45.169Z,1.90
2022-09-14T10:59:04.128Z,1.90
2022-09-14T11:04:21.467Z,2.20
2022-09-14T11:09:25.730Z,2.13
2022-09-14T11:14:38.881Z,2.40
2022-09-14T11:19:45.319Z,1.33
2022-09-14T11:24:48.240Z,1.90
2022-09-14T11:29:50.138Z,1.20
2022-09-14T11:34:54.695Z,1.97
2022-09-14T11:40:16.500Z,1.67
2022-09-14T11:45:23.646Z,1.83
2022-09-14T11:50:25.159Z,2.40
2022-09-14T11:55:24.592Z,1.90
2022-09-14T12:01:01.414Z,1.83
2022-09-14T12:06:37.788Z,1.73
2022-09-14T12:11:37.682Z,1.60
2022-09-14T12:17:17.299Z,2.40
2022-09-14T12:22:29.419Z,1.60
2022-09-14T12:27:32.264Z,1.80
2022-09-14T12:32:41.848Z,1.83
2022-09-14T12:37:40.913Z,1.97
2022-09-14T12:42:40.205Z,1.60
2022-09-14T12:47:51.918Z,1.60
2022-09-14T12:53:03.807Z,1.73
2022-09-14T12:58:10.956Z,1.40
2022-09-14T13:03:27.557Z,1.80
2022-09-14T13:08:26.074Z,1.73
2022-09-14T13:13:29.473Z,2.13
2022-09-14T13:18:33.433Z,1.77
2022-09-14T13:23:33.975Z,1.90
2022-09-14T13:28:33.341Z,1.80
2022-09-14T13:33:31.479Z,2.30
2022-09-14T13:38:33.903Z,1.87
2022-09-14T13:43:33.605Z,2.00
2022-09-14T13:48:31.799Z,2.10
2022-09-14T13:53:45.646Z,1.80
2022-09-14T13:58:45.083Z,2.70
2022-09-14T14:03:48.504Z,2.13
2022-09-14T14:08:52.658Z,2.30
2022-09-14T14:13:52.343Z,2.20
2022-09-14T14:18:53.101Z,2.10
2022-09-14T14:24:12.050Z,2.37
2022-09-14T14:29:16.140Z,1.63
2022-09-14T14:34:20.884Z,2.60
2022-09-14T14:39:20.767Z,1.93
2022-09-14T14:44:22.925Z,1.70
2022-09-14T14:49:22.663Z,2.00
2022-09-14T14:54:21.269Z,1.70
2022-09-14T14:59:31.059Z,2.40
2022-09-14T15:04:29.415Z,1.90
2022-09-14T15:09:29.650Z,1.40
2022-09-14T15:14:29.357Z,1.83
2022-09-14T15:19:28.121Z,1.43
2022-09-14T15:24:26.075Z,1.97
2022-09-14T15:29:25.629Z,1.73
2022-09-14T15:34:25.354Z,2.20
2022-09-14T15:39:25.200Z,2.20
2022-09-14T15:44:23.422Z,1.57
2022-09-14T15:49:24.493Z,2.20
2022-09-14T15:54:24.729Z,1.90
2022-09-14T15:59:23.362Z,2.00
2022-09-14T16:04:21.978Z,1.67
2022-09-14T16:09:22.436Z,1.57
2022-09-14T16:14:20.478Z,2.80
2022-09-14T16:19:18.409Z,1.67
2022-09-14T16:24:18.021Z,2.40
2022-09-14T16:29:18.799Z,2.03
2022-09-14T16:34:19.868Z,2.17
2022-09-14T16:39:20.424Z,1.93
2022-09-14T16:44:21.592Z,2.40
2022-09-14T16:49:23.596Z,2.40
2022-09-14T16:54:26.377Z,2.53
2022-09-14T16:59:25.684Z,2.43
2022-09-14T17:04:24.684Z,2.87
2022-09-14T17:09:24.530Z,3.20
2022-09-14T17:14:25.654Z,3.33
2022-09-14T17:19:24.203Z,2.70
2022-09-14T17:24:22.543Z,3.93
2022-09-14T17:29:20.555Z,4.00
2022-09-14T17:34:19.943Z,3.33
2022-09-14T17:39:17.911Z,3.20
2022-09-14T17:44:16.317Z,3.40
2022-09-14T17:49:14.587Z,3.60
2022-09-14T17:54:14.203Z,3.50
2022-09-14T17:59:14.084Z,3.63
2022-09-14T18:04:14.034Z,4.40
2022-09-14T18:09:16.601Z,3.40
2022-09-14T18:14:15.936Z,4.50
2022-09-14T18:19:14.703Z,3.57
2022-09-14T18:24:15.099Z,4.17
2022-09-14T18:29:15.932Z,4.00
2022-09-14T18:34:13.984Z,4.47
2022-09-14T18:39:14.834Z,4.10
2022-09-14T18:44:12.905Z,4.10
2022-09-14T18:49:10.822Z,4.43
2022-09-14T18:54:09.017Z,4.53
2022-09-14T18:59:11.396Z,4.73
2022-09-14T19:04:11.205Z,4.87
2022-09-14T19:09:09.207Z,4.90
2022-09-14T19:14:10.444Z,4.80
2022-09-14T19:19:14.443Z,6.00
2022-09-14T19:24:14.221Z,5.90
2022-09-14T19:29:14.150Z,6.80
2022-09-14T19:34:12.581Z,5.60
2022-09-14T19:39:10.773Z,5.70
2022-09-14T19:44:09.945Z,6.20
2022-09-14T19:49:14.410Z,6.47
2022-09-14T19:54:13.005Z,5.40
2022-09-14T19:59:11.186Z,6.33
2022-09-14T20:04:11.447Z,6.00
2022-09-14T20:09:12.119Z,6.00
2022-09-14T20:14:14.250Z,5.53
2022-09-14T20:19:14.963Z,5.60
2022-09-14T20:24:16.577Z,6.00
2022-09-14T20:29:16.625Z,5.53
2022-09-14T20:34:18.099Z,5.67
2022-09-14T20:39:16.681Z,5.00
2022-09-14T20:44:15.813Z,4.77
2022-09-14T20:49:16.449Z,4.47
2022-09-14T20:54:17.004Z,5.30
2022-09-14T20:59:16.857Z,4.70
2022-09-14T21:04:18.294Z,5.70
2022-09-14T21:09:18.740Z,5.80
2022-09-14T21:14:18.830Z,5.73
2022-09-14T21:19:20.397Z,5.80
2022-09-14T21:24:20.076Z,6.13
2022-09-14T21:29:22.826Z,5.30
2022-09-14T21:34:22.331Z,6.20
2022-09-14T21:39:23.840Z,5.90
2022-09-14T21:44:21.990Z,5.70
2022-09-14T21:49:22.394Z,7.00
2022-09-14T21:54:20.914Z,6.77
2022-09-14T21:59:20.369Z,5.23
2022-09-14T22:04:20.857Z,5.10
2022-09-14T22:09:22.344Z,4.80
2022-09-14T22:14:22.334Z,4.70
2022-09-14T22:19:21.809Z,4.67
2022-09-14T22:24:23.281Z,4.90
2022-09-14T22:29:21.260Z,5.40
2022-09-14T22:34:21.163Z,4.93
2022-09-14T22:39:19.390Z,5.93
2022-09-14T22:44:18.748Z,5.53
2022-09-14T22:49:17.411Z,5.23
2022-09-14T22:54:15.318Z,4.53
2022-09-14T22:59:13.353Z,4.77
2022-09-14T23:04:14.268Z,3.53
2022-09-14T23:09:14.663Z,3.50
2022-09-14T23:14:13.013Z,4.10
2022-09-14T23:19:16.288Z,4.00
2022-09-14T23:24:14.564Z,3.70
2022-09-14T23:29:15.708Z,3.90
2022-09-14T23:34:15.142Z,4.20
2022-09-14T23:39:13.176Z,3.10
2022-09-14T23:44:12.650Z,4.30
2022-09-14T23:49:12.304Z,3.47
2022-09-14T23:54:12.480Z,4.23
2022-09-14T23:59:12.521Z,4.20
